sensor_id;sensor_type;location;lat;lon;timestamp;pressure;altitude;pressure_sealevel;temperature
76713;BMP280;65640;43.154;25.658;2023-10-13T00:00:26;101083.75;;;9.21
76713;BMP280;65640;43.154;25.658;2023-10-13T00:02:51;101085.56;;;9.21
76713;BMP280;65640;43.154;25.658;2023-10-13T00:05:18;101083.78;;;9.26
76713;BMP280;65640;43.154;25.658;2023-10-13T00:07:44;101084.28;;;9.23
76713;BMP280;65640;43.154;25.658;2023-10-13T00:10:10;101076.47;;;9.23
76713;BMP280;65640;43.154;25.658;2023-10-13T00:12:36;101077.44;;;9.17
76713;BMP280;65640;43.154;25.658;2023-10-13T00:15:04;101079.91;;;9.07
76713;BMP280;65640;43.154;25.658;2023-10-13T00:17:38;101079.91;;;9.07
76713;BMP280;65640;43.154;25.658;2023-10-13T00:20:04;101075.13;;;9.04
76713;BMP280;65640;43.154;25.658;2023-10-13T00:22:37;101070.72;;;9.05
76713;BMP280;65640;43.154;25.658;2023-10-13T00:25:05;101067.41;;;9.09
76713;BMP280;65640;43.154;25.658;2023-10-13T00:27:31;101066.25;;;9.22
76713;BMP280;65640;43.154;25.658;2023-10-13T00:30:06;101052.56;;;9.15
76713;BMP280;65640;43.154;25.658;2023-10-13T00:32:44;101061.13;;;9.10
76713;BMP280;65640;43.154;25.658;2023-10-13T00:35:11;101063.63;;;9.00
76713;BMP280;65640;43.154;25.658;2023-10-13T00:37:39;101059.44;;;8.99
76713;BMP280;65640;43.154;25.658;2023-10-13T00:40:11;101060.94;;;8.95
76713;BMP280;65640;43.154;25.658;2023-10-13T00:42:52;101065.03;;;8.91
76713;BMP280;65640;43.154;25.658;2023-10-13T00:45:17;101062.44;;;8.91
76713;BMP280;65640;43.154;25.658;2023-10-13T00:47:44;101058.09;;;8.97
76713;BMP280;65640;43.154;25.658;2023-10-13T00:50:22;101055.16;;;8.93
76713;BMP280;65640;43.154;25.658;2023-10-13T00:52:50;101051.84;;;8.98
76713;BMP280;65640;43.154;25.658;2023-10-13T00:55:18;101045.72;;;8.92
76713;BMP280;65640;43.154;25.658;2023-10-13T00:57:50;101050.50;;;8.95
76713;BMP280;65640;43.154;25.658;2023-10-13T01:00:18;101051.03;;;8.97
76713;BMP280;65640;43.154;25.658;2023-10-13T01:02:47;101052.53;;;8.93
76713;BMP280;65640;43.154;25.658;2023-10-13T01:05:21;101057.34;;;8.79
76713;BMP280;65640;43.154;25.658;2023-10-13T01:07:47;101060.13;;;8.95
76713;BMP280;65640;43.154;25.658;2023-10-13T01:10:20;101061.25;;;8.82
76713;BMP280;65640;43.154;25.658;2023-10-13T01:12:51;101067.47;;;8.76
76713;BMP280;65640;43.154;25.658;2023-10-13T01:15:18;101066.03;;;8.68
76713;BMP280;65640;43.154;25.658;2023-10-13T01:17:46;101068.25;;;8.60
76713;BMP280;65640;43.154;25.658;2023-10-13T01:20:15;101071.09;;;8.58
76713;BMP280;65640;43.154;25.658;2023-10-13T01:22:50;101078.06;;;8.53
76713;BMP280;65640;43.154;25.658;2023-10-13T01:25:25;101067.53;;;8.48
76713;BMP280;65640;43.154;25.658;2023-10-13T01:27:54;101079.00;;;8.46
76713;BMP280;65640;43.154;25.658;2023-10-13T01:30:19;101085.41;;;8.56
76713;BMP280;65640;43.154;25.658;2023-10-13T01:32:50;101082.38;;;8.64
76713;BMP280;65640;43.154;25.658;2023-10-13T01:35:17;101078.19;;;8.63
76713;BMP280;65640;43.154;25.658;2023-10-13T01:37:45;101081.00;;;8.56
76713;BMP280;65640;43.154;25.658;2023-10-13T01:40:11;101078.78;;;8.48
76713;BMP280;65640;43.154;25.658;2023-10-13T01:42:39;101076.97;;;8.49
76713;BMP280;65640;43.154;25.658;2023-10-13T01:45:04;101082.19;;;8.49
76713;BMP280;65640;43.154;25.658;2023-10-13T01:47:33;101080.13;;;8.51
76713;BMP280;65640;43.154;25.658;2023-10-13T01:49:58;101080.94;;;8.51
76713;BMP280;65640;43.154;25.658;2023-10-13T01:52:32;101082.31;;;8.42
76713;BMP280;65640;43.154;25.658;2023-10-13T01:54:57;101085.97;;;8.41
76713;BMP280;65640;43.154;25.658;2023-10-13T01:57:26;101077.81;;;8.37
76713;BMP280;65640;43.154;25.658;2023-10-13T01:59:53;101079.97;;;8.40
76713;BMP280;65640;43.154;25.658;2023-10-13T02:02:20;101086.69;;;8.53
76713;BMP280;65640;43.154;25.658;2023-10-13T02:04:55;101084.69;;;8.43
76713;BMP280;65640;43.154;25.658;2023-10-13T02:07:23;101084.69;;;8.43
76713;BMP280;65640;43.154;25.658;2023-10-13T02:10:00;101088.00;;;8.39
76713;BMP280;65640;43.154;25.658;2023-10-13T02:12:29;101093.78;;;8.41
76713;BMP280;65640;43.154;25.658;2023-10-13T02:15:03;101089.97;;;8.32
76713;BMP280;65640;43.154;25.658;2023-10-13T02:17:30;101081.84;;;8.28
76713;BMP280;65640;43.154;25.658;2023-10-13T02:20:06;101085.19;;;8.40
76713;BMP280;65640;43.154;25.658;2023-10-13T02:22:33;101083.66;;;8.44
76713;BMP280;65640;43.154;25.658;2023-10-13T02:25:01;101078.69;;;8.26
76713;BMP280;65640;43.154;25.658;2023-10-13T02:27:33;101071.38;;;8.12
76713;BMP280;65640;43.154;25.658;2023-10-13T02:30:07;101069.56;;;8.12
76713;BMP280;65640;43.154;25.658;2023-10-13T02:32:38;101071.69;;;8.15
76713;BMP280;65640;43.154;25.658;2023-10-13T02:35:06;101072.56;;;8.21
76713;BMP280;65640;43.154;25.658;2023-10-13T02:37:33;101085.97;;;8.13
76713;BMP280;65640;43.154;25.658;2023-10-13T02:40:01;101090.66;;;8.11
76713;BMP280;65640;43.154;25.658;2023-10-13T02:42:26;101078.03;;;8.19
76713;BMP280;65640;43.154;25.658;2023-10-13T02:44:52;101080.09;;;8.17
76713;BMP280;65640;43.154;25.658;2023-10-13T02:47:21;101081.50;;;8.08
76713;BMP280;65640;43.154;25.658;2023-10-13T02:49:49;101079.81;;;8.02
76713;BMP280;65640;43.154;25.658;2023-10-13T02:52:14;101079.59;;;8.03
76713;BMP280;65640;43.154;25.658;2023-10-13T02:54:41;101080.97;;;7.94
76713;BMP280;65640;43.154;25.658;2023-10-13T02:57:13;101086.03;;;8.01
76713;BMP280;65640;43.154;25.658;2023-10-13T02:59:41;101081.63;;;8.01
76713;BMP280;65640;43.154;25.658;2023-10-13T03:02:13;101087.63;;;8.02
76713;BMP280;65640;43.154;25.658;2023-10-13T03:04:55;101091.59;;;8.04
76713;BMP280;65640;43.154;25.658;2023-10-13T03:07:28;101086.63;;;8.03
76713;BMP280;65640;43.154;25.658;2023-10-13T03:09:59;101083.34;;;7.96
76713;BMP280;65640;43.154;25.658;2023-10-13T03:12:36;101083.81;;;7.93
76713;BMP280;65640;43.154;25.658;2023-10-13T03:15:02;101086.34;;;7.88
76713;BMP280;65640;43.154;25.658;2023-10-13T03:17:48;101093.78;;;7.96
76713;BMP280;65640;43.154;25.658;2023-10-13T03:20:15;101093.78;;;7.96
76713;BMP280;65640;43.154;25.658;2023-10-13T03:22:43;101096.88;;;7.81
76713;BMP280;65640;43.154;25.658;2023-10-13T03:25:15;101104.72;;;7.69
76713;BMP280;65640;43.154;25.658;2023-10-13T03:28:07;101095.09;;;7.70
76713;BMP280;65640;43.154;25.658;2023-10-13T03:30:33;101103.03;;;7.75
76713;BMP280;65640;43.154;25.658;2023-10-13T03:33:05;101103.50;;;7.72
76713;BMP280;65640;43.154;25.658;2023-10-13T03:35:38;101094.03;;;7.66
76713;BMP280;65640;43.154;25.658;2023-10-13T03:38:05;101098.19;;;7.67
76713;BMP280;65640;43.154;25.658;2023-10-13T03:40:52;101097.59;;;7.77
76713;BMP280;65640;43.154;25.658;2023-10-13T03:43:44;101095.19;;;7.87
76713;BMP280;65640;43.154;25.658;2023-10-13T03:46:32;101090.59;;;7.94
76713;BMP280;65640;43.154;25.658;2023-10-13T03:48:58;101096.81;;;8.04
76713;BMP280;65640;43.154;25.658;2023-10-13T03:51:27;101088.75;;;8.06
76713;BMP280;65640;43.154;25.658;2023-10-13T03:53:56;101086.16;;;8.06
76713;BMP280;65640;43.154;25.658;2023-10-13T03:56:28;101091.16;;;8.07
76713;BMP280;65640;43.154;25.658;2023-10-13T03:58:57;101074.88;;;8.17
76713;BMP280;65640;43.154;25.658;2023-10-13T04:01:26;101063.19;;;8.20
76713;BMP280;65640;43.154;25.658;2023-10-13T04:04:01;101066.25;;;8.17
76713;BMP280;65640;43.154;25.658;2023-10-13T04:06:30;101074.47;;;8.25
76713;BMP280;65640;43.154;25.658;2023-10-13T04:09:15;101085.59;;;8.04
76713;BMP280;65640;43.154;25.658;2023-10-13T04:12:09;101088.06;;;7.82
76713;BMP280;65640;43.154;25.658;2023-10-13T04:14:41;101088.00;;;7.65
76713;BMP280;65640;43.154;25.658;2023-10-13T04:17:25;101089.84;;;7.53
76713;BMP280;65640;43.154;25.658;2023-10-13T04:19:55;101084.50;;;7.48
76713;BMP280;65640;43.154;25.658;2023-10-13T04:22:38;101086.75;;;7.56
76713;BMP280;65640;43.154;25.658;2023-10-13T04:27:57;101077.75;;;7.36
76713;BMP280;65640;43.154;25.658;2023-10-13T04:30:37;101077.38;;;7.32
76713;BMP280;65640;43.154;25.658;2023-10-13T04:33:31;101083.06;;;7.29
76713;BMP280;65640;43.154;25.658;2023-10-13T04:38:43;101081.72;;;7.38
76713;BMP280;65640;43.154;25.658;2023-10-13T04:41:33;101086.34;;;7.36
76713;BMP280;65640;43.154;25.658;2023-10-13T04:46:48;101089.31;;;7.40
76713;BMP280;65640;43.154;25.658;2023-10-13T04:49:14;101098.66;;;7.52
76713;BMP280;65640;43.154;25.658;2023-10-13T04:52:04;101100.78;;;7.55
76713;BMP280;65640;43.154;25.658;2023-10-13T04:54:35;101104.44;;;7.54
76713;BMP280;65640;43.154;25.658;2023-10-13T04:57:13;101115.75;;;7.60
76713;BMP280;65640;43.154;25.658;2023-10-13T04:59:59;101118.56;;;7.70
76713;BMP280;65640;43.154;25.658;2023-10-13T05:02:41;101117.53;;;7.83
76713;BMP280;65640;43.154;25.658;2023-10-13T05:05:13;101120.00;;;7.89
76713;BMP280;65640;43.154;25.658;2023-10-13T05:07:40;101124.84;;;7.97
76713;BMP280;65640;43.154;25.658;2023-10-13T05:10:24;101133.66;;;8.08
76713;BMP280;65640;43.154;25.658;2023-10-13T05:13:08;101132.25;;;8.17
76713;BMP280;65640;43.154;25.658;2023-10-13T05:15:52;101141.44;;;8.36
76713;BMP280;65640;43.154;25.658;2023-10-13T05:18:36;101140.16;;;8.51
76713;BMP280;65640;43.154;25.658;2023-10-13T05:21:20;101145.59;;;8.66
76713;BMP280;65640;43.154;25.658;2023-10-13T05:24:05;101140.88;;;8.79
76713;BMP280;65640;43.154;25.658;2023-10-13T05:26:49;101140.84;;;8.96
76713;BMP280;65640;43.154;25.658;2023-10-13T05:29:33;101153.81;;;9.08
76713;BMP280;65640;43.154;25.658;2023-10-13T05:32:17;101150.41;;;9.24
76713;BMP280;65640;43.154;25.658;2023-10-13T05:35:01;101158.97;;;9.41
76713;BMP280;65640;43.154;25.658;2023-10-13T05:37:45;101160.50;;;9.59
76713;BMP280;65640;43.154;25.658;2023-10-13T05:40:29;101167.00;;;9.78
76713;BMP280;65640;43.154;25.658;2023-10-13T05:43:13;101176.06;;;9.92
76713;BMP280;65640;43.154;25.658;2023-10-13T05:46:02;101173.69;;;10.18
76713;BMP280;65640;43.154;25.658;2023-10-13T05:48:46;101181.78;;;10.43
76713;BMP280;65640;43.154;25.658;2023-10-13T05:51:27;101176.75;;;10.63
76713;BMP280;65640;43.154;25.658;2023-10-13T05:54:02;101180.59;;;10.87
76713;BMP280;65640;43.154;25.658;2023-10-13T05:56:40;101186.50;;;11.05
76713;BMP280;65640;43.154;25.658;2023-10-13T05:59:25;101184.75;;;11.20
76713;BMP280;65640;43.154;25.658;2023-10-13T06:02:09;101185.63;;;11.36
76713;BMP280;65640;43.154;25.658;2023-10-13T06:04:53;101180.94;;;11.53
76713;BMP280;65640;43.154;25.658;2023-10-13T06:07:37;101183.66;;;11.79
76713;BMP280;65640;43.154;25.658;2023-10-13T06:10:21;101172.94;;;11.85
76713;BMP280;65640;43.154;25.658;2023-10-13T06:13:06;101181.63;;;12.06
76713;BMP280;65640;43.154;25.658;2023-10-13T06:15:50;101180.59;;;12.22
76713;BMP280;65640;43.154;25.658;2023-10-13T06:18:34;101193.47;;;12.29
76713;BMP280;65640;43.154;25.658;2023-10-13T06:21:18;101188.25;;;12.49
76713;BMP280;65640;43.154;25.658;2023-10-13T06:24:03;101192.19;;;12.62
76713;BMP280;65640;43.154;25.658;2023-10-13T06:26:47;101203.97;;;12.74
76713;BMP280;65640;43.154;25.658;2023-10-13T06:29:31;101194.75;;;12.97
76713;BMP280;65640;43.154;25.658;2023-10-13T06:31:58;101188.13;;;13.10
76713;BMP280;65640;43.154;25.658;2023-10-13T06:34:29;101188.91;;;13.20
76713;BMP280;65640;43.154;25.658;2023-10-13T06:37:10;101194.38;;;13.34
76713;BMP280;65640;43.154;25.658;2023-10-13T06:39:49;101196.72;;;13.40
76713;BMP280;65640;43.154;25.658;2023-10-13T06:42:15;101193.00;;;13.52
76713;BMP280;65640;43.154;25.658;2023-10-13T06:44:50;101188.69;;;13.71
76713;BMP280;65640;43.154;25.658;2023-10-13T06:47:18;101185.94;;;13.91
76713;BMP280;65640;43.154;25.658;2023-10-13T06:49:45;101194.72;;;14.15
76713;BMP280;65640;43.154;25.658;2023-10-13T06:52:13;101195.41;;;14.26
76713;BMP280;65640;43.154;25.658;2023-10-13T06:54:39;101188.41;;;14.45
76713;BMP280;65640;43.154;25.658;2023-10-13T06:57:06;101189.66;;;14.53
76713;BMP280;65640;43.154;25.658;2023-10-13T06:59:45;101189.75;;;14.71
76713;BMP280;65640;43.154;25.658;2023-10-13T07:02:10;101189.69;;;14.77
76713;BMP280;65640;43.154;25.658;2023-10-13T07:04:46;101191.88;;;14.93
76713;BMP280;65640;43.154;25.658;2023-10-13T07:07:12;101183.81;;;15.08
76713;BMP280;65640;43.154;25.658;2023-10-13T07:09:41;101181.47;;;15.26
76713;BMP280;65640;43.154;25.658;2023-10-13T07:12:14;101173.25;;;15.51
76713;BMP280;65640;43.154;25.658;2023-10-13T07:14:51;101178.22;;;15.71
76713;BMP280;65640;43.154;25.658;2023-10-13T07:17:18;101183.44;;;15.76
76713;BMP280;65640;43.154;25.658;2023-10-13T07:19:53;101178.50;;;15.88
76713;BMP280;65640;43.154;25.658;2023-10-13T07:22:19;101179.47;;;15.92
76713;BMP280;65640;43.154;25.658;2023-10-13T07:24:46;101184.03;;;16.05
76713;BMP280;65640;43.154;25.658;2023-10-13T07:27:18;101162.38;;;16.22
76713;BMP280;65640;43.154;25.658;2023-10-13T07:29:55;101163.16;;;16.36
76713;BMP280;65640;43.154;25.658;2023-10-13T07:32:43;101165.63;;;16.60
76713;BMP280;65640;43.154;25.658;2023-10-13T07:35:15;101161.13;;;16.74
76713;BMP280;65640;43.154;25.658;2023-10-13T07:37:43;101159.94;;;16.80
76713;BMP280;65640;43.154;25.658;2023-10-13T07:40:10;101161.69;;;16.98
76713;BMP280;65640;43.154;25.658;2023-10-13T07:42:51;101148.19;;;17.22
76713;BMP280;65640;43.154;25.658;2023-10-13T07:45:17;101141.66;;;17.42
76713;BMP280;65640;43.154;25.658;2023-10-13T07:47:51;101142.16;;;17.66
76713;BMP280;65640;43.154;25.658;2023-10-13T07:50:16;101146.16;;;17.86
76713;BMP280;65640;43.154;25.658;2023-10-13T07:52:51;101148.75;;;18.00
76713;BMP280;65640;43.154;25.658;2023-10-13T07:55:45;101147.94;;;18.21
76713;BMP280;65640;43.154;25.658;2023-10-13T07:58:12;101145.00;;;18.31
76713;BMP280;65640;43.154;25.658;2023-10-13T08:00:39;101145.22;;;18.52
76713;BMP280;65640;43.154;25.658;2023-10-13T08:03:04;101144.66;;;18.81
76713;BMP280;65640;43.154;25.658;2023-10-13T08:05:53;101143.88;;;18.98
76713;BMP280;65640;43.154;25.658;2023-10-13T08:08:39;101142.81;;;19.16
76713;BMP280;65640;43.154;25.658;2023-10-13T08:11:05;101138.09;;;19.38
76713;BMP280;65640;43.154;25.658;2023-10-13T08:13:46;101141.50;;;19.65
76713;BMP280;65640;43.154;25.658;2023-10-13T08:16:14;101140.69;;;19.81
76713;BMP280;65640;43.154;25.658;2023-10-13T08:18:51;101137.13;;;20.07
76713;BMP280;65640;43.154;25.658;2023-10-13T08:21:17;101132.28;;;20.38
76713;BMP280;65640;43.154;25.658;2023-10-13T08:23:43;101144.25;;;20.53
76713;BMP280;65640;43.154;25.658;2023-10-13T08:26:22;101144.94;;;20.70
76713;BMP280;65640;43.154;25.658;2023-10-13T08:29:03;101138.81;;;20.70
76713;BMP280;65640;43.154;25.658;2023-10-13T08:32:01;101141.53;;;20.61
76713;BMP280;65640;43.154;25.658;2023-10-13T08:34:33;101139.78;;;20.65
76713;BMP280;65640;43.154;25.658;2023-10-13T08:37:08;101138.81;;;20.90
76713;BMP280;65640;43.154;25.658;2023-10-13T08:39:55;101146.78;;;21.44
76713;BMP280;65640;43.154;25.658;2023-10-13T08:42:44;101142.53;;;21.76
76713;BMP280;65640;43.154;25.658;2023-10-13T08:47:58;101145.53;;;21.62
76713;BMP280;65640;43.154;25.658;2023-10-13T08:50:43;101137.53;;;21.62
76713;BMP280;65640;43.154;25.658;2023-10-13T08:56:05;101137.28;;;21.91
76713;BMP280;65640;43.154;25.658;2023-10-13T09:01:31;101138.16;;;22.32
76713;BMP280;65640;43.154;25.658;2023-10-13T09:04:25;101137.38;;;22.31
76713;BMP280;65640;43.154;25.658;2023-10-13T09:06:59;101135.59;;;22.48
76713;BMP280;65640;43.154;25.658;2023-10-13T09:09:25;101126.09;;;22.62
76713;BMP280;65640;43.154;25.658;2023-10-13T09:11:59;101122.13;;;22.84
76713;BMP280;65640;43.154;25.658;2023-10-13T09:14:38;101137.25;;;23.08
76713;BMP280;65640;43.154;25.658;2023-10-13T09:17:08;101124.88;;;23.31
76713;BMP280;65640;43.154;25.658;2023-10-13T09:19:54;101119.28;;;23.36
76713;BMP280;65640;43.154;25.658;2023-10-13T09:22:27;101120.72;;;23.49
76713;BMP280;65640;43.154;25.658;2023-10-13T09:24:57;101114.22;;;23.62
76713;BMP280;65640;43.154;25.658;2023-10-13T09:27:30;101109.25;;;23.80
76713;BMP280;65640;43.154;25.658;2023-10-13T09:30:01;101107.31;;;23.96
76713;BMP280;65640;43.154;25.658;2023-10-13T09:32:44;101109.25;;;24.15
76713;BMP280;65640;43.154;25.658;2023-10-13T09:35:20;101097.50;;;24.19
76713;BMP280;65640;43.154;25.658;2023-10-13T09:37:52;101100.25;;;24.23
76713;BMP280;65640;43.154;25.658;2023-10-13T09:40:22;101099.34;;;23.99
76713;BMP280;65640;43.154;25.658;2023-10-13T09:42:55;101094.03;;;24.19
76713;BMP280;65640;43.154;25.658;2023-10-13T09:45:29;101087.56;;;24.39
76713;BMP280;65640;43.154;25.658;2023-10-13T09:48:02;101092.75;;;24.70
76713;BMP280;65640;43.154;25.658;2023-10-13T09:50:37;101092.34;;;24.91
76713;BMP280;65640;43.154;25.658;2023-10-13T09:53:06;101098.50;;;24.91
76713;BMP280;65640;43.154;25.658;2023-10-13T09:55:40;101095.47;;;24.93
76713;BMP280;65640;43.154;25.658;2023-10-13T09:58:10;101093.81;;;25.07
76713;BMP280;65640;43.154;25.658;2023-10-13T10:00:59;101091.03;;;25.27
76713;BMP280;65640;43.154;25.658;2023-10-13T10:03:45;101080.13;;;25.39
76713;BMP280;65640;43.154;25.658;2023-10-13T10:06:23;101082.09;;;25.42
76713;BMP280;65640;43.154;25.658;2023-10-13T10:09:08;101073.53;;;25.59
76713;BMP280;65640;43.154;25.658;2023-10-13T10:12:04;101073.81;;;25.80
76713;BMP280;65640;43.154;25.658;2023-10-13T10:17:39;101071.31;;;25.94
76713;BMP280;65640;43.154;25.658;2023-10-13T10:20:05;101076.00;;;25.71
76713;BMP280;65640;43.154;25.658;2023-10-13T10:22:41;101075.81;;;25.57
76713;BMP280;65640;43.154;25.658;2023-10-13T10:25:13;101072.41;;;25.34
76713;BMP280;65640;43.154;25.658;2023-10-13T10:28:05;101079.41;;;25.42
76713;BMP280;65640;43.154;25.658;2023-10-13T10:30:35;101067.03;;;25.60
76713;BMP280;65640;43.154;25.658;2023-10-13T10:33:04;101064.63;;;25.55
76713;BMP280;65640;43.154;25.658;2023-10-13T10:35:34;101057.44;;;25.59
76713;BMP280;65640;43.154;25.658;2023-10-13T10:38:18;101060.22;;;25.66
76713;BMP280;65640;43.154;25.658;2023-10-13T10:43:28;101050.53;;;25.58
76713;BMP280;65640;43.154;25.658;2023-10-13T10:46:11;101050.53;;;25.58
76713;BMP280;65640;43.154;25.658;2023-10-13T10:48:38;101056.06;;;25.72
76713;BMP280;65640;43.154;25.658;2023-10-13T10:51:08;101060.13;;;25.89
76713;BMP280;65640;43.154;25.658;2023-10-13T10:54:00;101051.56;;;25.80
76713;BMP280;65640;43.154;25.658;2023-10-13T10:56:38;101050.78;;;25.79
76713;BMP280;65640;43.154;25.658;2023-10-13T10:59:05;101053.59;;;25.86
76713;BMP280;65640;43.154;25.658;2023-10-13T11:01:32;101047.09;;;25.87
76713;BMP280;65640;43.154;25.658;2023-10-13T11:04:06;101058.06;;;26.08
76713;BMP280;65640;43.154;25.658;2023-10-13T11:06:48;101052.94;;;26.29
76713;BMP280;65640;43.154;25.658;2023-10-13T11:09:14;101041.16;;;26.41
76713;BMP280;65640;43.154;25.658;2023-10-13T11:11:53;101046.97;;;26.47
76713;BMP280;65640;43.154;25.658;2023-10-13T11:14:22;101039.81;;;26.24
76713;BMP280;65640;43.154;25.658;2023-10-13T11:16:49;101044.06;;;26.25
76713;BMP280;65640;43.154;25.658;2023-10-13T11:19:41;101030.34;;;26.38
76713;BMP280;65640;43.154;25.658;2023-10-13T11:22:13;101041.09;;;26.38
76713;BMP280;65640;43.154;25.658;2023-10-13T11:25:04;101032.59;;;26.28
76713;BMP280;65640;43.154;25.658;2023-10-13T11:27:40;101024.13;;;26.26
76713;BMP280;65640;43.154;25.658;2023-10-13T11:30:18;101028.97;;;26.51
76713;BMP280;65640;43.154;25.658;2023-10-13T11:33:05;101026.91;;;26.77
76713;BMP280;65640;43.154;25.658;2023-10-13T11:35:38;101020.88;;;26.91
76713;BMP280;65640;43.154;25.658;2023-10-13T11:43:26;101014.34;;;26.92
76713;BMP280;65640;43.154;25.658;2023-10-13T11:45:52;101012.72;;;26.84
76713;BMP280;65640;43.154;25.658;2023-10-13T11:48:38;101021.81;;;26.65
76713;BMP280;65640;43.154;25.658;2023-10-13T11:51:05;101010.22;;;26.58
76713;BMP280;65640;43.154;25.658;2023-10-13T11:53:37;101015.22;;;26.56
76713;BMP280;65640;43.154;25.658;2023-10-13T11:56:03;101010.69;;;26.67
76713;BMP280;65640;43.154;25.658;2023-10-13T11:58:41;101012.16;;;26.57
76713;BMP280;65640;43.154;25.658;2023-10-13T12:01:06;101006.00;;;26.57
76713;BMP280;65640;43.154;25.658;2023-10-13T12:03:47;101000.34;;;26.69
76713;BMP280;65640;43.154;25.658;2023-10-13T12:06:32;101008.16;;;26.88
76713;BMP280;65640;43.154;25.658;2023-10-13T12:09:18;101007.03;;;26.92
76713;BMP280;65640;43.154;25.658;2023-10-13T12:11:48;101009.41;;;27.05
76713;BMP280;65640;43.154;25.658;2023-10-13T12:14:17;101012.09;;;27.05
76713;BMP280;65640;43.154;25.658;2023-10-13T12:16:44;101014.06;;;27.11
76713;BMP280;65640;43.154;25.658;2023-10-13T12:19:24;101015.31;;;27.28
76713;BMP280;65640;43.154;25.658;2023-10-13T12:21:50;101017.34;;;27.41
76713;BMP280;65640;43.154;25.658;2023-10-13T12:24:20;101013.81;;;27.34
76713;BMP280;65640;43.154;25.658;2023-10-13T12:27:08;101007.56;;;27.12
76713;BMP280;65640;43.154;25.658;2023-10-13T12:29:59;101012.13;;;27.01
76713;BMP280;65640;43.154;25.658;2023-10-13T12:32:32;101017.09;;;27.03
76713;BMP280;65640;43.154;25.658;2023-10-13T12:35:00;101016.81;;;27.18
76713;BMP280;65640;43.154;25.658;2023-10-13T12:37:42;101011.38;;;27.11
76713;BMP280;65640;43.154;25.658;2023-10-13T12:40:17;101007.81;;;26.93
76713;BMP280;65640;43.154;25.658;2023-10-13T12:43:02;101006.56;;;26.80
76713;BMP280;65640;43.154;25.658;2023-10-13T12:45:46;101007.25;;;26.70
76713;BMP280;65640;43.154;25.658;2023-10-13T12:48:32;101004.97;;;26.72
76713;BMP280;65640;43.154;25.658;2023-10-13T12:51:16;101001.84;;;26.66
76713;BMP280;65640;43.154;25.658;2023-10-13T12:54:00;101004.91;;;26.65
76713;BMP280;65640;43.154;25.658;2023-10-13T12:56:45;101000.31;;;26.65
76713;BMP280;65640;43.154;25.658;2023-10-13T12:59:11;100997.34;;;26.77
76713;BMP280;65640;43.154;25.658;2023-10-13T13:01:39;100996.13;;;26.71
76713;BMP280;65640;43.154;25.658;2023-10-13T13:04:08;100993.38;;;26.64
76713;BMP280;65640;43.154;25.658;2023-10-13T13:06:37;100991.16;;;26.73
76713;BMP280;65640;43.154;25.658;2023-10-13T13:09:02;100995.06;;;26.83
76713;BMP280;65640;43.154;25.658;2023-10-13T13:11:27;100988.97;;;26.89
76713;BMP280;65640;43.154;25.658;2023-10-13T13:13:56;100997.75;;;26.83
76713;BMP280;65640;43.154;25.658;2023-10-13T13:16:22;100987.38;;;26.78
76713;BMP280;65640;43.154;25.658;2023-10-13T13:18:55;100983.47;;;26.72
76713;BMP280;65640;43.154;25.658;2023-10-13T13:21:21;100986.50;;;26.67
76713;BMP280;65640;43.154;25.658;2023-10-13T13:23:52;100981.81;;;26.60
76713;BMP280;65640;43.154;25.658;2023-10-13T13:26:24;100982.97;;;26.56
76713;BMP280;65640;43.154;25.658;2023-10-13T13:28:49;100981.75;;;26.50
76713;BMP280;65640;43.154;25.658;2023-10-13T13:31:22;100987.06;;;26.43
76713;BMP280;65640;43.154;25.658;2023-10-13T13:33:52;100983.25;;;26.44
76713;BMP280;65640;43.154;25.658;2023-10-13T13:36:17;100987.03;;;26.39
76713;BMP280;65640;43.154;25.658;2023-10-13T13:38:43;100977.00;;;26.32
76713;BMP280;65640;43.154;25.658;2023-10-13T13:41:14;100978.13;;;26.31
76713;BMP280;65640;43.154;25.658;2023-10-13T13:43:50;100985.81;;;26.29
76713;BMP280;65640;43.154;25.658;2023-10-13T13:46:23;100986.16;;;26.28
76713;BMP280;65640;43.154;25.658;2023-10-13T13:48:58;100991.47;;;26.24
76713;BMP280;65640;43.154;25.658;2023-10-13T13:51:25;100987.22;;;26.20
76713;BMP280;65640;43.154;25.658;2023-10-13T13:53:55;100991.47;;;26.21
76713;BMP280;65640;43.154;25.658;2023-10-13T13:56:21;100986.41;;;26.16
76713;BMP280;65640;43.154;25.658;2023-10-13T13:58:51;100983.28;;;26.07
76713;BMP280;65640;43.154;25.658;2023-10-13T14:01:16;100989.81;;;26.09
76713;BMP280;65640;43.154;25.658;2023-10-13T14:03:45;100995.91;;;26.06
76713;BMP280;65640;43.154;25.658;2023-10-13T14:06:22;100992.00;;;26.00
76713;BMP280;65640;43.154;25.658;2023-10-13T14:08:56;101001.09;;;25.92
76713;BMP280;65640;43.154;25.658;2023-10-13T14:11:27;101002.31;;;25.98
76713;BMP280;65640;43.154;25.658;2023-10-13T14:14:05;101007.69;;;25.95
76713;BMP280;65640;43.154;25.658;2023-10-13T14:16:37;101003.00;;;25.88
76713;BMP280;65640;43.154;25.658;2023-10-13T14:19:02;101001.66;;;25.75
76713;BMP280;65640;43.154;25.658;2023-10-13T14:21:32;101005.06;;;25.72
76713;BMP280;65640;43.154;25.658;2023-10-13T14:24:00;101000.13;;;25.74
76713;BMP280;65640;43.154;25.658;2023-10-13T14:26:27;101005.44;;;25.67
76713;BMP280;65640;43.154;25.658;2023-10-13T14:28:53;101002.34;;;25.65
76713;BMP280;65640;43.154;25.658;2023-10-13T14:31:34;101004.09;;;25.54
76713;BMP280;65640;43.154;25.658;2023-10-13T14:34:01;101003.19;;;25.43
76713;BMP280;65640;43.154;25.658;2023-10-13T14:36:27;101000.41;;;25.36
76713;BMP280;65640;43.154;25.658;2023-10-13T14:39:00;101003.75;;;25.29
76713;BMP280;65640;43.154;25.658;2023-10-13T14:41:26;101008.25;;;25.22
76713;BMP280;65640;43.154;25.658;2023-10-13T14:43:51;101005.50;;;25.18
76713;BMP280;65640;43.154;25.658;2023-10-13T14:46:20;101002.38;;;25.12
76713;BMP280;65640;43.154;25.658;2023-10-13T14:48:51;101004.53;;;25.03
76713;BMP280;65640;43.154;25.658;2023-10-13T14:51:17;100996.78;;;24.98
76713;BMP280;65640;43.154;25.658;2023-10-13T14:53:43;101007.03;;;24.93